Time;durP1;ratioP1;P1;durP2;ratioP2;P2;SDS_P1;SDS_P2;PMS_P1;PMS_P2;Temp;Humidity;BMP_temperature;BMP_pressure;BME280_temperature;BME280_humidity;BME280_pressure;Samples;Min_cycle;Max_cycle;Signal;HPM_P1;HPM_P2
2021/06/22 00:01:37;;;;;;;55.00;30.60;;;;;;;24.02;85.44;100841.66;1703456;84;21825;-73
2021/06/22 00:04:09;;;;;;;71.02;41.02;;;;;;;24.00;85.66;100849.09;1708511;82;21353;-72
2021/06/22 00:06:42;;;;;;;87.90;62.73;;;;;;;23.98;85.94;100847.77;1715690;82;21377;-73
2021/06/22 00:09:14;;;;;;;105.30;63.40;;;;;;;23.97;85.94;100844.69;1702009;83;21184;-72
2021/06/22 00:11:48;;;;;;;90.47;55.37;;;;;;;23.96;86.22;100837.36;1697172;83;21327;-72
2021/06/22 00:14:20;;;;;;;;;;;;;;;23.96;86.37;100843.84;1702481;83;21885;-72
2021/06/22 00:16:52;;;;;;;57.30;25.97;;;;;;;23.97;86.58;100845.54;1690089;83;20554;-71
2021/06/22 00:19:25;;;;;;;44.80;16.23;;;;;;;23.93;86.81;100846.55;1674137;85;21373;-74
2021/06/22 00:21:57;;;;;;;36.35;12.37;;;;;;;23.91;86.99;100845.50;1656144;86;22083;-73
2021/06/22 00:24:30;;;;;;;29.03;10.37;;;;;;;23.92;87.08;100843.48;1662578;85;21277;-73
2021/06/22 00:27:04;;;;;;;31.53;11.23;;;;;;;23.93;87.05;100847.39;1674999;85;21370;-74
2021/06/22 00:29:38;;;;;;;37.13;9.30;;;;;;;23.96;86.91;100849.53;1665609;85;21726;-73
2021/06/22 00:32:11;;;;;;;34.73;7.42;;;;;;;23.98;86.76;100859.12;1664104;85;21243;-74
2021/06/22 00:34:45;;;;;;;39.18;7.85;;;;;;;24.02;86.62;100865.17;1679270;84;21346;-71
2021/06/22 00:37:18;;;;;;;33.60;6.65;;;;;;;24.04;86.49;100863.41;1670125;85;21428;-73
2021/06/22 00:39:51;;;;;;;24.10;6.17;;;;;;;24.08;86.41;100863.78;1655842;85;21470;-73
2021/06/22 00:42:24;;;;;;;24.90;7.30;;;;;;;24.12;86.25;100866.77;1642687;85;21175;-73
2021/06/22 00:44:59;;;;;;;39.20;7.40;;;;;;;24.15;85.97;100866.89;1658264;85;21352;-71
2021/06/22 00:47:32;;;;;;;30.77;6.05;;;;;;;24.16;85.67;100867.16;1690165;83;21351;-71
2021/06/22 00:50:07;;;;;;;23.85;6.00;;;;;;;24.16;85.51;100864.33;1706886;83;21378;-70
2021/06/22 00:52:42;;;;;;;40.52;7.72;;;;;;;24.15;85.50;100868.31;1704046;82;21344;-72
2021/06/22 00:55:38;;;;;;;27.87;7.05;;;;;;;24.13;85.57;100867.03;1716862;83;21841;-72
2021/06/22 00:57:51;;;;;;;32.25;6.80;;;;;;;24.12;85.58;100861.92;1715972;83;21288;-72
2021/06/22 01:00:26;;;;;;;24.18;6.28;;;;;;;24.15;85.47;100863.25;1715269;83;21334;-71
2021/06/22 01:03:01;;;;;;;32.45;6.15;;;;;;;24.17;85.31;100853.78;1709915;82;21205;-71
2021/06/22 01:05:35;;;;;;;28.73;5.97;;;;;;;24.20;85.19;100842.56;1711802;82;21328;-70
2021/06/22 01:08:09;;;;;;;37.98;6.87;;;;;;;24.24;85.00;100842.69;1709970;82;21323;-70
2021/06/22 01:10:42;;;;;;;20.70;5.78;;;;;;;24.19;84.92;100833.00;1712798;83;21207;-72
2021/06/22 01:13:15;;;;;;;32.00;5.70;;;;;;;24.19;84.79;100830.16;1712761;83;21319;-71
2021/06/22 01:15:48;;;;;;;39.60;6.40;;;;;;;24.21;84.84;100837.12;1718614;83;21350;-71
2021/06/22 01:18:20;;;;;;;27.90;7.55;;;;;;;24.23;84.63;100831.10;1714915;83;21331;-72
2021/06/22 01:21:14;;;;;;;25.97;6.58;;;;;;;24.25;84.72;100823.09;1712605;83;21207;-81
2021/06/22 01:23:48;;;;;;;34.95;6.05;;;;;;;24.25;84.68;100840.94;1709010;82;21343;-69
2021/06/22 01:26:21;;;;;;;24.13;5.93;;;;;;;24.24;84.72;100843.53;1705070;82;21376;-70
2021/06/22 01:28:56;;;;;;;28.47;6.60;;;;;;;24.20;84.84;100831.81;1707512;84;21235;-70
2021/06/22 01:31:29;;;;;;;31.10;6.33;;;;;;;24.12;85.49;100839.80;1678218;83;21378;-80
2021/06/22 01:34:04;;;;;;;42.23;8.33;;;;;;;24.06;86.29;100835.50;1707856;84;21185;-78
2021/06/22 01:36:40;;;;;;;35.50;8.53;;;;;;;24.01;87.33;100815.88;1684011;83;21357;-77
2021/06/22 01:39:15;;;;;;;33.78;8.25;;;;;;;23.90;88.24;100799.02;1658062;85;21238;-77
2021/06/22 01:41:48;;;;;;;33.42;7.92;;;;;;;23.81;88.72;100795.38;1705112;84;21231;-71
2021/06/22 01:44:21;;;;;;;37.17;7.28;;;;;;;23.71;89.49;100800.06;1706008;83;21161;-71
2021/06/22 01:46:54;;;;;;;32.88;6.92;;;;;;;23.62;90.20;100795.88;1687941;83;21357;-71
2021/06/22 01:49:28;;;;;;;43.20;7.00;;;;;;;23.58;90.90;100796.31;1706610;84;21339;-70
2021/06/22 01:52:01;;;;;;;37.10;7.78;;;;;;;23.53;91.53;100802.78;1712740;83;21861;-72
2021/06/22 01:54:36;;;;;;;26.55;6.37;;;;;;;23.49;92.15;100802.64;1712843;83;21202;-71
2021/06/22 01:57:10;;;;;;;28.00;6.30;;;;;;;23.52;92.52;100811.05;1713279;83;21376;-70
2021/06/22 01:59:45;;;;;;;24.67;6.12;;;;;;;23.54;92.83;100815.17;1707731;83;21271;-71
2021/06/22 02:02:22;;;;;;;33.25;6.65;;;;;;;23.61;93.00;100814.64;1705538;83;21841;-70
2021/06/22 02:04:58;;;;;;;29.32;6.62;;;;;;;23.65;93.01;100807.13;1706736;84;21333;-71
2021/06/22 02:07:31;;;;;;;29.40;6.17;;;;;;;23.68;93.15;100800.16;1691753;83;21243;-70
2021/06/22 02:10:15;;;;;;;29.48;7.45;;;;;;;23.68;93.21;100788.82;1710450;82;21414;-69
2021/06/22 02:12:52;;;;;;;26.75;6.85;;;;;;;23.72;93.26;100793.21;1652358;83;21208;-74
2021/06/22 02:15:25;;;;;;;23.77;6.67;;;;;;;23.77;93.31;100784.50;1710334;83;21205;-68
2021/06/22 02:17:59;;;;;;;26.97;7.00;;;;;;;23.74;93.11;100776.66;1692077;83;21841;-70
2021/06/22 02:20:33;;;;;;;38.67;6.72;;;;;;;23.67;93.03;100769.30;1667864;85;21372;-69
2021/06/22 02:23:05;;;;;;;;;;;;;;;23.60;92.98;100768.42;1688991;83;21885;-72
2021/06/22 02:25:40;;;;;;;32.60;7.00;;;;;;;23.54;92.97;100757.65;1713199;82;20217;-70
2021/06/22 02:28:21;;;;;;;35.43;7.50;;;;;;;23.49;92.96;100769.19;1711455;83;21339;-71
2021/06/22 02:30:55;;;;;;;24.10;6.35;;;;;;;23.42;92.88;100776.00;1718734;82;21738;-77
2021/06/22 02:33:28;;;;;;;25.12;6.50;;;;;;;23.41;92.90;100775.76;1714921;83;21199;-78
2021/06/22 02:36:02;;;;;;;29.02;6.60;;;;;;;23.45;92.87;100776.71;1707740;84;21181;-70
2021/06/22 02:38:38;;;;;;;20.50;6.72;;;;;;;23.49;92.79;100781.38;1698099;83;21346;-71
2021/06/22 02:41:12;;;;;;;16.93;6.00;;;;;;;23.55;92.64;100772.06;1709341;83;21193;-70
2021/06/22 02:43:45;;;;;;;20.30;6.67;;;;;;;23.65;92.47;100773.08;1705440;83;21731;-72
2021/06/22 02:46:17;;;;;;;29.82;7.83;;;;;;;23.75;92.19;100782.00;1683459;83;21270;-69
2021/06/22 02:48:51;;;;;;;17.65;6.50;;;;;;;23.86;91.73;100778.99;1683525;83;21202;-68
2021/06/22 02:51:25;;;;;;;16.37;6.78;;;;;;;23.90;91.07;100784.83;1707250;83;21347;-71
2021/06/22 02:53:59;;;;;;;23.35;6.17;;;;;;;23.87;90.43;100769.88;1702840;83;21246;-74
2021/06/22 02:56:32;;;;;;;25.25;6.10;;;;;;;23.84;90.10;100779.09;1674768;83;21871;-72
2021/06/22 02:59:06;;;;;;;22.07;6.60;;;;;;;23.83;89.85;100785.95;1708227;83;21183;-68
2021/06/22 03:01:43;;;;;;;21.97;7.05;;;;;;;23.84;89.56;100791.25;1694038;83;21156;-68
2021/06/22 03:04:16;;;;;;;16.75;6.00;;;;;;;23.90;89.47;100791.93;1677432;83;21376;-67
2021/06/22 03:06:48;;;;;;;30.03;8.07;;;;;;;24.01;89.49;100803.11;1700664;83;22137;-75
2021/06/22 03:09:25;;;;;;;14.63;6.28;;;;;;;24.07;89.37;100810.23;1713188;82;21249;-75
2021/06/22 03:11:58;;;;;;;17.45;6.17;;;;;;;24.10;89.43;100814.62;1710610;83;21390;-70
2021/06/22 03:14:34;;;;;;;18.25;5.90;;;;;;;24.15;89.66;100809.31;1696472;83;21351;-70
2021/06/22 03:17:14;;;;;;;17.30;6.50;;;;;;;24.18;89.69;100822.80;1691922;83;21364;-69
2021/06/22 03:19:47;;;;;;;21.42;6.65;;;;;;;24.28;89.70;100825.21;1707592;82;21199;-72
2021/06/22 03:22:21;;;;;;;15.05;6.72;;;;;;;24.34;89.30;100830.92;1687795;82;21488;-72
2021/06/22 03:24:54;;;;;;;19.17;6.70;;;;;;;24.36;88.13;100829.97;1696799;82;21405;-75
2021/06/22 03:27:27;;;;;;;20.30;5.95;;;;;;;24.38;87.52;100834.73;1696148;84;21189;-71
2021/06/22 03:30:01;;;;;;;24.92;7.03;;;;;;;24.36;87.29;100829.97;1638849;84;21273;-73
2021/06/22 03:32:34;;;;;;;22.85;7.42;;;;;;;24.34;86.73;100829.50;1709394;82;21241;-67
2021/06/22 03:35:09;;;;;;;26.00;7.57;;;;;;;24.36;86.49;100827.13;1708611;84;21335;-70
2021/06/22 03:37:42;;;;;;;19.87;6.50;;;;;;;24.35;86.06;100829.16;1707541;83;21200;-77
2021/06/22 03:40:19;;;;;;;19.73;8.33;;;;;;;24.41;86.03;100835.44;1706456;83;21857;-71
2021/06/22 03:42:52;;;;;;;17.05;6.37;;;;;;;24.49;85.69;100835.93;1716316;82;21849;-73
2021/06/22 03:45:27;;;;;;;;;;;;;;;24.57;86.31;100838.72;1716980;83;21352;-70
2021/06/22 03:48:00;;;;;;;26.45;8.23;;;;;;;24.71;87.32;100832.73;1699483;84;20267;-70
2021/06/22 03:50:34;;;;;;;23.77;6.78;;;;;;;24.85;87.55;100838.91;1708603;84;21247;-69
2021/06/22 03:53:07;;;;;;;23.87;9.55;;;;;;;25.00;87.45;100845.34;1686160;83;21221;-71
2021/06/22 03:55:40;;;;;;;21.45;7.78;;;;;;;25.09;86.89;100841.22;1711612;83;21452;-68
2021/06/22 03:58:14;;;;;;;25.97;7.12;;;;;;;25.23;86.40;100833.77;1709802;83;21721;-69
2021/06/22 04:00:54;;;;;;;31.97;7.35;;;;;;;25.36;85.92;100841.95;1709893;84;21193;-70
2021/06/22 04:03:29;;;;;;;25.23;7.30;;;;;;;25.49;84.99;100849.30;1707325;83;21172;-71
2021/06/22 04:06:13;;;;;;;22.67;8.28;;;;;;;25.59;84.52;100859.40;1661847;83;21901;-68
2021/06/22 04:08:46;;;;;;;19.27;8.05;;;;;;;25.77;84.04;100866.46;1709130;83;21829;-71
2021/06/22 04:11:22;;;;;;;25.65;9.08;;;;;;;25.98;83.79;100870.84;1717630;82;21186;-69
2021/06/22 04:13:56;;;;;;;20.15;8.08;;;;;;;26.21;83.54;100873.41;1714575;83;21331;-69
2021/06/22 04:16:31;;;;;;;27.42;7.47;;;;;;;26.44;83.01;100890.77;1709892;82;21315;-68
2021/06/22 04:19:04;;;;;;;15.32;6.60;;;;;;;26.64;80.78;100894.07;1711478;83;21340;-69
2021/06/22 04:21:40;;;;;;;18.62;5.97;;;;;;;26.65;79.01;100915.67;1719345;83;21213;-69
2021/06/22 04:24:14;;;;;;;18.17;6.08;;;;;;;26.54;78.35;100921.06;1707496;83;21332;-70
2021/06/22 04:26:48;;;;;;;24.98;7.90;;;;;;;26.43;78.30;100924.73;1712840;84;21169;-68
2021/06/22 04:29:21;;;;;;;21.40;7.87;;;;;;;26.32;78.92;100924.99;1712747;83;21301;-69
2021/06/22 04:31:56;;;;;;;38.35;6.92;;;;;;;26.29;79.20;100928.58;1713040;84;21212;-67
2021/06/22 04:34:28;;;;;;;26.12;7.47;;;;;;;26.28;79.47;100926.31;1707827;84;21800;-69
2021/06/22 04:37:01;;;;;;;24.40;6.12;;;;;;;26.25;79.18;100940.45;1707587;82;21168;-68
2021/06/22 04:39:34;;;;;;;20.43;6.62;;;;;;;26.18;79.15;100933.95;1689638;83;21747;-68
2021/06/22 04:42:07;;;;;;;31.35;7.22;;;;;;;26.13;79.09;100937.63;1709133;82;21394;-69
2021/06/22 04:44:39;;;;;;;29.02;7.12;;;;;;;26.08;79.15;100933.62;1710283;82;21225;-72
2021/06/22 04:47:12;;;;;;;24.23;7.12;;;;;;;26.03;79.60;100942.40;1710136;82;21175;-67
2021/06/22 04:49:45;;;;;;;24.77;7.12;;;;;;;26.04;80.14;100942.63;1708609;82;21310;-71
2021/06/22 04:52:17;;;;;;;24.17;6.23;;;;;;;26.12;80.51;100946.78;1707009;83;21222;-70
2021/06/22 04:54:50;;;;;;;22.37;6.53;;;;;;;26.24;80.64;100947.34;1708080;82;21255;-70
2021/06/22 04:57:23;;;;;;;20.60;7.03;;;;;;;26.38;80.53;100951.46;1692930;83;21307;-70
2021/06/22 04:59:55;;;;;;;22.25;7.75;;;;;;;26.49;80.02;100944.66;1710013;84;21829;-69
2021/06/22 05:02:28;;;;;;;24.85;7.12;;;;;;;26.57;79.86;100946.59;1717235;82;21760;-70
2021/06/22 05:05:02;;;;;;;26.52;7.47;;;;;;;26.67;79.32;100941.78;1712763;82;21646;-70
2021/06/22 05:07:35;;;;;;;26.90;6.80;;;;;;;26.73;78.55;100941.17;1695937;83;21335;-69
2021/06/22 05:10:08;;;;;;;17.15;5.70;;;;;;;26.77;77.87;100935.58;1710248;83;21257;-69
2021/06/22 05:12:45;;;;;;;17.80;6.75;;;;;;;26.75;77.58;100926.56;1708331;83;21648;-66
2021/06/22 05:15:20;;;;;;;22.25;7.00;;;;;;;26.77;77.20;100926.41;1708586;84;22066;-70
2021/06/22 05:17:53;;;;;;;20.25;6.20;;;;;;;26.85;77.56;100926.03;1700254;82;21761;-70
2021/06/22 05:20:26;;;;;;;22.67;6.58;;;;;;;26.91;76.82;100925.99;1710799;82;21190;-71
2021/06/22 05:23:00;;;;;;;21.00;6.20;;;;;;;27.00;76.78;100914.66;1712277;83;21213;-71
2021/06/22 05:25:33;;;;;;;36.35;8.95;;;;;;;27.13;76.31;100919.70;1687862;83;21194;-69
2021/06/22 05:28:05;;;;;;;17.87;6.65;;;;;;;27.23;75.64;100930.00;1694302;82;21325;-70
2021/06/22 05:30:38;;;;;;;29.25;8.00;;;;;;;27.25;75.04;100935.36;1689951;83;21226;-71
2021/06/22 05:33:11;;;;;;;17.15;6.12;;;;;;;27.32;74.80;100934.11;1708373;82;21374;-70
2021/06/22 05:35:44;;;;;;;22.67;6.50;;;;;;;27.40;74.51;100931.09;1710171;83;21206;-64
2021/06/22 05:38:17;;;;;;;18.70;5.35;;;;;;;27.50;74.18;100925.66;1713608;83;21344;-65
2021/06/22 05:40:50;;;;;;;17.92;6.15;;;;;;;27.62;73.81;100941.27;1710095;82;21197;-74
2021/06/22 05:43:23;;;;;;;18.98;6.70;;;;;;;27.72;73.00;100945.00;1714441;82;21331;-74
2021/06/22 05:45:55;;;;;;;9.85;4.95;;;;;;;27.77;72.46;100946.77;1718207;82;21210;-68
2021/06/22 05:48:30;;;;;;;14.20;4.80;;;;;;;27.83;72.01;100950.38;1701708;83;21381;-70
2021/06/22 05:51:03;;;;;;;10.60;4.75;;;;;;;27.85;71.58;100939.44;1704349;83;21363;-69
2021/06/22 05:53:35;;;;;;;15.08;4.08;;;;;;;27.80;71.10;100954.00;1710029;84;21953;-70
2021/06/22 05:56:08;;;;;;;17.73;4.55;;;;;;;27.76;71.07;100945.89;1711301;83;21190;-71
2021/06/22 05:58:41;;;;;;;14.75;4.45;;;;;;;27.78;70.95;100941.28;1696213;83;21268;-69
2021/06/22 06:01:16;;;;;;;17.42;5.67;;;;;;;27.81;71.40;100925.66;1689107;85;21220;-72
2021/06/22 06:03:48;;;;;;;15.40;5.05;;;;;;;27.94;71.49;100927.20;1643636;86;21862;-71
2021/06/22 06:06:22;;;;;;;18.60;5.28;;;;;;;28.02;70.69;100927.63;1625606;87;21372;-74
2021/06/22 06:08:54;;;;;;;15.18;4.87;;;;;;;28.02;70.19;100924.77;1653276;86;21281;-72
2021/06/22 06:11:32;;;;;;;17.05;4.85;;;;;;;27.97;70.09;100922.19;1649413;87;21404;-72
2021/06/22 06:14:05;;;;;;;12.93;4.55;;;;;;;27.83;69.47;100922.45;1640076;87;21771;-70
2021/06/22 06:16:39;;;;;;;13.28;4.87;;;;;;;27.60;69.97;100931.41;1634563;86;21363;-70
2021/06/22 06:19:12;;;;;;;;;;;;;;;27.34;70.23;100937.64;1641685;86;21348;-75
2021/06/22 06:21:45;;;;;;;12.78;4.37;;;;;;;27.08;71.02;100926.52;1645522;85;20561;-77
2021/06/22 06:24:19;;;;;;;13.43;5.22;;;;;;;26.83;71.58;100926.38;1653579;85;21360;-73
2021/06/22 06:27:00;;;;;;;10.53;3.85;;;;;;;26.70;72.45;100918.27;1640424;86;21236;-73
2021/06/22 06:32:05;;;;;;;16.35;4.53;;;;;;;26.77;73.51;100934.15;1642651;86;21359;-70
2021/06/22 06:34:37;;;;;;;15.05;5.05;;;;;;;26.91;72.26;100944.53;1639582;86;21241;-70
2021/06/22 06:37:10;;;;;;;11.88;4.75;;;;;;;27.06;72.23;100930.92;1640059;86;21241;-74
2021/06/22 06:39:43;;;;;;;13.70;5.30;;;;;;;27.26;72.13;100931.30;1641512;87;21378;-71
2021/06/22 06:42:15;;;;;;;14.95;5.37;;;;;;;27.45;71.64;100933.06;1641569;86;21318;-70
2021/06/22 06:44:48;;;;;;;17.92;6.42;;;;;;;27.66;70.90;100952.19;1687895;81;21710;-75
2021/06/22 06:47:22;;;;;;;19.30;6.80;;;;;;;27.80;70.37;100952.56;1764968;80;21405;-74
2021/06/22 06:49:54;;;;;;;16.75;4.72;;;;;;;27.93;69.64;100947.56;1768660;81;21339;-73
2021/06/22 06:52:27;;;;;;;13.38;5.17;;;;;;;28.09;69.35;100944.93;1766637;81;21702;-74
2021/06/22 06:54:59;;;;;;;13.90;5.72;;;;;;;28.21;67.84;100947.67;1765560;80;21328;-74
2021/06/22 06:57:32;;;;;;;19.27;5.22;;;;;;;28.20;67.84;100935.17;1737957;82;21331;-75
2021/06/22 07:00:05;;;;;;;21.37;5.75;;;;;;;28.25;68.47;100933.46;1762058;81;21371;-74
2021/06/22 07:02:37;;;;;;;;;;;;;;;28.30;67.82;100928.27;1742191;81;21248;-75
2021/06/22 07:05:10;;;;;;;11.22;4.65;;;;;;;28.22;66.88;100924.19;1769007;81;20249;-74
2021/06/22 07:07:43;;;;;;;13.83;4.45;;;;;;;28.04;67.01;100919.50;1736057;81;21410;-74
2021/06/22 07:10:15;;;;;;;15.25;5.12;;;;;;;27.89;67.41;100913.20;1766555;81;21355;-75
2021/06/22 07:12:49;;;;;;;14.13;4.28;;;;;;;27.71;67.34;100911.91;1764665;81;21375;-74
2021/06/22 07:15:27;;;;;;;14.78;5.42;;;;;;;27.53;68.06;100919.81;1737608;81;21328;-74
2021/06/22 07:18:23;;;;;;;11.38;5.12;;;;;;;27.38;68.99;100916.95;1769789;79;21427;-78
2021/06/22 07:20:55;;;;;;;12.07;5.05;;;;;;;27.28;68.98;100914.86;1667011;85;21731;-74
2021/06/22 07:23:28;;;;;;;9.20;3.50;;;;;;;27.10;69.42;100913.52;1706998;83;21232;-70
2021/06/22 07:26:00;;;;;;;13.23;3.70;;;;;;;27.02;70.06;100906.59;1704768;84;21226;-71
2021/06/22 07:28:33;;;;;;;12.78;3.85;;;;;;;26.96;70.08;100917.19;1704529;83;21890;-74
2021/06/22 07:31:08;;;;;;;;;;;;;;;26.87;70.23;100920.19;1682259;84;21271;-76
2021/06/22 07:33:42;;;;;;;12.88;3.75;;;;;;;26.83;70.59;100914.98;1683029;84;20262;-75
2021/06/22 07:36:14;;;;;;;15.80;3.77;;;;;;;26.83;70.63;100922.72;1705111;83;21216;-71
2021/06/22 07:38:49;;;;;;;11.68;3.33;;;;;;;26.87;70.85;100927.94;1706133;83;21213;-76
2021/06/22 07:41:22;;;;;;;13.80;3.37;;;;;;;26.92;71.42;100919.94;1681463;84;21227;-71
2021/06/22 07:43:55;;;;;;;16.27;4.03;;;;;;;27.00;71.59;100918.93;1698941;84;21753;-70
2021/06/22 07:46:28;;;;;;;16.67;4.03;;;;;;;27.01;71.54;100924.86;1677624;85;21258;-71
2021/06/22 07:49:02;;;;;;;12.00;4.40;;;;;;;27.05;71.31;100921.52;1681696;84;21239;-75
2021/06/22 07:51:36;;;;;;;12.10;3.87;;;;;;;27.14;70.89;100920.16;1705951;83;21789;-69
2021/06/22 07:54:08;;;;;;;16.02;4.78;;;;;;;27.24;70.53;100926.57;1705179;83;21216;-76
2021/06/22 07:56:43;;;;;;;18.20;4.55;;;;;;;27.20;70.60;100929.91;1668245;84;21222;-74
2021/06/22 07:59:15;;;;;;;11.00;4.25;;;;;;;27.13;70.97;100929.69;1680321;84;21769;-76
2021/06/22 08:01:48;;;;;;;17.45;5.40;;;;;;;27.08;71.09;100929.95;1704313;83;21205;-75
2021/06/22 08:04:21;;;;;;;17.35;5.37;;;;;;;27.08;71.60;100933.03;1705129;83;21433;-74
2021/06/22 08:06:54;;;;;;;9.05;3.80;;;;;;;27.13;71.99;100932.54;1705550;83;21802;-73
2021/06/22 08:09:27;;;;;;;22.25;5.30;;;;;;;27.13;71.38;100929.69;1704296;83;21217;-74
2021/06/22 08:12:00;;;;;;;17.70;5.58;;;;;;;27.06;71.87;100923.17;1682055;84;21204;-74
2021/06/22 08:14:35;;;;;;;12.60;4.42;;;;;;;27.02;71.95;100939.38;1705218;82;21189;-73
2021/06/22 08:17:07;;;;;;;20.60;5.22;;;;;;;27.01;71.99;100944.02;1676144;85;21891;-74
2021/06/22 08:19:40;;;;;;;15.90;4.80;;;;;;;27.08;72.47;100939.94;1674936;84;21850;-74
2021/06/22 08:22:13;;;;;;;17.85;4.65;;;;;;;27.14;72.09;100943.59;1674826;84;21262;-73
2021/06/22 08:24:46;;;;;;;18.32;5.00;;;;;;;27.18;71.62;100948.00;1669741;85;21687;-77
2021/06/22 08:27:19;;;;;;;16.97;5.15;;;;;;;27.20;71.60;100955.59;1681427;84;21336;-74
2021/06/22 08:29:51;;;;;;;13.37;4.53;;;;;;;27.21;71.30;100955.23;1676056;84;21861;-74
2021/06/22 08:32:24;;;;;;;10.78;4.45;;;;;;;27.20;71.15;100954.97;1678288;84;22581;-73
2021/06/22 08:34:57;;;;;;;21.20;5.25;;;;;;;27.22;70.84;100954.61;1668941;85;21798;-74
2021/06/22 08:37:30;;;;;;;21.48;4.42;;;;;;;27.28;70.64;100951.72;1685409;84;21244;-74
2021/06/22 08:40:05;;;;;;;15.38;4.47;;;;;;;27.38;70.75;100948.56;1703968;83;21253;-73
2021/06/22 08:42:41;;;;;;;11.65;4.22;;;;;;;27.48;70.87;100956.38;1698077;83;21229;-74
2021/06/22 08:45:15;;;;;;;29.18;6.35;;;;;;;27.53;70.55;100961.20;1707415;82;21202;-75
2021/06/22 08:47:47;;;;;;;33.98;10.15;;;;;;;27.51;70.01;100956.47;1705768;83;21304;-73
2021/06/22 08:50:21;;;;;;;21.07;5.55;;;;;;;27.48;69.88;100962.08;1670954;84;21333;-74
2021/06/22 08:52:54;;;;;;;25.43;7.12;;;;;;;27.50;70.57;100965.61;1680837;84;21748;-74
2021/06/22 08:55:33;;;;;;;11.70;5.17;;;;;;;27.55;70.29;100965.34;1703153;83;21228;-75
2021/06/22 08:58:09;;;;;;;16.12;5.50;;;;;;;27.54;70.00;100975.11;1676374;85;21775;-74
2021/06/22 09:00:45;;;;;;;19.40;6.10;;;;;;;27.53;70.52;100978.32;1678245;84;21194;-75
2021/06/22 09:03:26;;;;;;;22.98;5.80;;;;;;;27.55;70.85;100983.90;1675916;84;21404;-74
2021/06/22 09:06:04;;;;;;;15.15;6.20;;;;;;;27.57;70.65;100983.54;1674631;84;21861;-73
2021/06/22 09:08:37;;;;;;;19.67;6.15;;;;;;;27.53;70.15;100993.41;1673462;84;21292;-74
2021/06/22 09:11:14;;;;;;;21.65;7.53;;;;;;;27.46;70.20;100990.98;1674830;84;21202;-73
2021/06/22 09:14:02;;;;;;;27.42;7.35;;;;;;;27.43;70.96;100989.45;1674782;85;21432;-74
2021/06/22 09:16:37;;;;;;;22.95;6.75;;;;;;;27.50;71.59;100989.03;1679419;84;21895;-74
2021/06/22 09:19:11;;;;;;;23.65;6.67;;;;;;;27.61;71.62;100993.84;1704777;83;21348;-73
2021/06/22 09:21:46;;;;;;;20.10;6.72;;;;;;;27.74;71.65;100989.70;1658010;85;21351;-74
2021/06/22 09:24:22;;;;;;;22.62;6.15;;;;;;;27.83;71.09;100991.79;1706590;82;21217;-73
2021/06/22 09:26:59;;;;;;;23.73;6.92;;;;;;;27.91;70.74;100988.52;1705582;83;21375;-74
2021/06/22 09:29:31;;;;;;;20.23;6.97;;;;;;;27.97;70.78;100990.75;1705562;83;21253;-74
2021/06/22 09:32:04;;;;;;;23.62;6.30;;;;;;;27.97;70.46;100983.61;1708638;82;21218;-75
2021/06/22 09:34:37;;;;;;;20.57;6.30;;;;;;;28.00;70.76;100979.19;1704136;84;21299;-74
2021/06/22 09:37:09;;;;;;;19.50;5.63;;;;;;;28.08;70.51;100981.84;1678046;84;21351;-73
2021/06/22 09:39:42;;;;;;;27.45;6.22;;;;;;;28.14;70.29;100978.94;1704033;83;21822;-74
2021/06/22 09:42:15;;;;;;;19.73;7.45;;;;;;;28.20;70.07;100981.70;1635474;85;21193;-74
2021/06/22 09:44:47;;;;;;;23.80;7.37;;;;;;;28.27;70.36;100982.48;1675995;84;21414;-70
2021/06/22 09:47:23;;;;;;;24.67;7.40;;;;;;;28.28;69.95;100974.98;1677724;85;21373;-70
2021/06/22 09:49:56;;;;;;;24.20;7.37;;;;;;;28.32;68.87;100975.06;1698299;82;21181;-72
2021/06/22 09:52:30;;;;;;;20.60;6.10;;;;;;;28.34;69.36;100974.92;1678172;85;21332;-70
2021/06/22 09:55:05;;;;;;;34.13;7.08;;;;;;;28.39;69.10;100969.53;1676501;85;21875;-76
2021/06/22 09:57:45;;;;;;;24.20;6.30;;;;;;;28.38;68.83;100967.27;1673170;84;21336;-74
2021/06/22 10:00:18;;;;;;;19.95;6.37;;;;;;;28.35;68.90;100971.44;1672273;85;21194;-71
2021/06/22 10:02:55;;;;;;;23.10;6.15;;;;;;;28.32;68.60;100971.58;1664254;85;21905;-76
2021/06/22 10:05:29;;;;;;;27.10;8.45;;;;;;;28.31;68.60;100968.50;1684230;84;21276;-71
2021/06/22 10:08:03;;;;;;;25.62;7.17;;;;;;;28.35;68.47;100968.58;1675806;85;21356;-71
2021/06/22 10:10:41;;;;;;;32.53;6.83;;;;;;;28.23;68.42;100961.56;1667128;85;21333;-69
2021/06/22 10:13:45;;;;;;;38.73;7.08;;;;;;;28.16;69.00;100966.53;1680681;85;21309;-74
2021/06/22 10:16:25;;;;;;;28.05;7.83;;;;;;;28.11;67.85;100959.66;1683074;85;21421;-69
2021/06/22 10:18:58;;;;;;;33.55;9.03;;;;;;;28.10;68.21;100965.16;1705452;84;21859;-69
2021/06/22 10:21:30;;;;;;;35.80;8.65;;;;;;;28.11;68.78;100956.80;1680859;84;21389;-69
2021/06/22 10:24:04;;;;;;;31.80;8.28;;;;;;;28.18;68.76;100954.11;1678903;85;21358;-70
2021/06/22 10:26:37;;;;;;;30.43;7.40;;;;;;;28.23;68.12;100961.56;1702012;84;21904;-75
2021/06/22 10:29:10;;;;;;;43.95;8.20;;;;;;;28.26;68.31;100950.83;1723127;82;21256;-71
2021/06/22 10:31:42;;;;;;;34.98;8.55;;;;;;;28.29;67.92;100958.05;1728957;83;21410;-71
2021/06/22 10:34:16;;;;;;;33.10;8.93;;;;;;;28.35;68.10;100953.70;1708441;82;21222;-70
2021/06/22 10:36:58;;;;;;;45.25;8.58;;;;;;;28.42;68.03;100958.18;1708121;83;21411;-70
2021/06/22 10:39:53;;;;;;;45.83;8.45;;;;;;;28.48;66.94;100952.98;1692090;83;21734;-70
2021/06/22 10:42:25;;;;;;;34.88;7.75;;;;;;;28.52;66.97;100943.31;1696429;83;21535;-69
2021/06/22 10:45:02;;;;;;;38.02;9.60;;;;;;;28.54;66.91;100948.05;1693494;83;21351;-68
2021/06/22 10:47:44;;;;;;;45.30;9.08;;;;;;;28.57;67.15;100944.45;1673505;86;21384;-69
2021/06/22 10:50:27;;;;;;;39.58;9.13;;;;;;;28.60;66.44;100947.12;1709243;84;21468;-75
2021/06/22 10:53:06;;;;;;;36.85;9.03;;;;;;;28.58;66.69;100948.96;1712800;82;21877;-74
2021/06/22 10:55:55;;;;;;;60.88;11.85;;;;;;;28.62;67.00;100938.41;1695042;83;21230;-69
2021/06/22 10:58:26;;;;;;;40.08;8.80;;;;;;;28.68;66.30;100941.81;1712582;82;21250;-72
2021/06/22 11:01:08;;;;;;;40.43;8.83;;;;;;;28.66;66.14;100935.63;1709067;83;21591;-70
2021/06/22 11:03:41;;;;;;;33.67;9.20;;;;;;;28.66;66.28;100938.48;1712560;82;21395;-70
2021/06/22 11:06:18;;;;;;;48.80;10.63;;;;;;;28.67;66.49;100939.55;1712749;84;21349;-69
2021/06/22 11:08:52;;;;;;;40.43;8.83;;;;;;;28.71;66.31;100940.45;1703597;83;21239;-73
2021/06/22 11:11:25;;;;;;;36.00;8.63;;;;;;;28.70;65.03;100930.81;1690156;83;21352;-69
2021/06/22 11:13:59;;;;;;;37.88;9.50;;;;;;;28.67;64.63;100930.97;1689550;83;21351;-70
2021/06/22 11:16:33;;;;;;;46.83;9.40;;;;;;;28.69;64.65;100932.87;1674501;84;21431;-69
2021/06/22 11:19:09;;;;;;;51.65;10.20;;;;;;;28.69;64.48;100926.30;1691652;83;21217;-71
2021/06/22 11:21:51;;;;;;;33.88;9.05;;;;;;;28.68;64.09;100930.38;1691371;83;21964;-73
2021/06/22 11:24:26;;;;;;;59.98;9.03;;;;;;;28.67;64.63;100930.16;1698612;83;21703;-68
2021/06/22 11:27:02;;;;;;;36.65;9.03;;;;;;;28.67;64.37;100943.83;1684612;83;21290;-73
2021/06/22 11:29:42;;;;;;;44.85;9.60;;;;;;;28.63;64.09;100936.39;1704356;83;21257;-68
2021/06/22 11:32:32;;;;;;;56.92;11.43;;;;;;;28.60;64.75;100935.11;1675810;84;21347;-70
2021/06/22 11:35:08;;;;;;;60.90;10.53;;;;;;;28.63;64.13;100940.67;1673445;84;21254;-70
2021/06/22 11:37:41;;;;;;;50.67;8.85;;;;;;;28.62;62.19;100936.98;1678784;84;21802;-69
2021/06/22 11:40:21;;;;;;;60.25;10.50;;;;;;;28.64;61.38;100943.17;1696053;84;21213;-70
2021/06/22 11:43:09;;;;;;;60.25;10.32;;;;;;;28.64;60.82;100931.73;1668803;84;21334;-71
2021/06/22 11:45:43;;;;;;;59.95;10.75;;;;;;;28.65;60.78;100935.40;1684101;85;21300;-72
2021/06/22 11:48:15;;;;;;;60.40;10.00;;;;;;;28.67;60.54;100938.11;1676226;85;21362;-71
2021/06/22 11:50:48;;;;;;;61.28;10.82;;;;;;;28.69;60.57;100934.30;1681573;84;21235;-73
2021/06/22 11:53:21;;;;;;;53.05;9.95;;;;;;;28.71;60.20;100941.05;1674839;84;21316;-71
2021/06/22 11:55:55;;;;;;;57.78;10.03;;;;;;;28.71;59.51;100935.33;1682980;84;21351;-70